createdAt,value
2022-08-22T00:00:16.571Z,15.88
2022-08-22T00:02:52.977Z,18.59
2022-08-22T00:03:01.016Z,17.84
2022-08-22T00:03:03.865Z,17.36
2022-08-22T00:03:09.504Z,15.96
2022-08-22T00:03:12.734Z,16.41
2022-08-22T00:03:16.003Z,15.84
2022-08-22T00:05:43.373Z,15.73
2022-08-22T00:08:12.593Z,15.65
2022-08-22T00:10:49.072Z,15.66
2022-08-22T00:13:19.823Z,15.70
2022-08-22T00:15:49.914Z,15.69
2022-08-22T00:18:20.383Z,15.70
2022-08-22T00:20:49.610Z,15.64
2022-08-22T00:23:18.528Z,15.60
2022-08-22T00:25:51.444Z,15.59
2022-08-22T00:28:21.766Z,15.59
2022-08-22T00:30:54.602Z,15.63
2022-08-22T00:33:27.729Z,15.62
2022-08-22T00:36:02.924Z,15.65
2022-08-22T00:38:32.511Z,15.67
2022-08-22T00:41:01.597Z,15.71
2022-08-22T00:43:40.865Z,15.70
2022-08-22T00:46:18.616Z,15.73
2022-08-22T00:48:57.749Z,15.76
2022-08-22T00:51:32.146Z,15.76
2022-08-22T00:54:07.008Z,15.79
2022-08-22T00:56:56.164Z,15.88
2022-08-22T00:59:42.653Z,15.95
2022-08-22T01:02:15.506Z,16.01
2022-08-22T01:04:50.470Z,16.04
2022-08-22T01:07:24.090Z,16.12
2022-08-22T01:10:04.115Z,16.18
2022-08-22T01:12:44.093Z,16.27
2022-08-22T01:15:13.720Z,16.26
2022-08-22T01:18:01.290Z,16.22
2022-08-22T01:20:40.997Z,16.20
2022-08-22T01:23:20.389Z,16.17
2022-08-22T01:25:57.169Z,16.12
2022-08-22T01:28:42.105Z,16.02
2022-08-22T01:31:27.332Z,15.96
2022-08-22T01:34:27.500Z,15.92
2022-08-22T01:37:06.905Z,15.86
2022-08-22T01:39:51.535Z,15.73
2022-08-22T03:40:34.921Z,15.63
2022-08-22T03:43:10.784Z,15.65
2022-08-22T03:45:54.812Z,15.69
2022-08-22T03:48:38.769Z,15.75
2022-08-22T03:51:13.566Z,15.85
2022-08-22T03:53:54.842Z,15.98
2022-08-22T03:56:44.445Z,15.94
2022-08-22T03:59:42.778Z,15.82
2022-08-22T04:02:42.061Z,15.77
2022-08-22T04:05:24.112Z,15.89
2022-08-22T04:08:03.313Z,15.97
2022-08-22T04:10:51.749Z,16.01
2022-08-22T04:13:53.024Z,16.01
2022-08-22T04:16:31.811Z,16.04
2022-08-22T04:19:11.162Z,16.02
2022-08-22T04:21:57.706Z,16.09
2022-08-22T04:24:34.203Z,16.05
2022-08-22T04:27:05.112Z,16.05
2022-08-22T04:29:37.222Z,16.01
2022-08-22T04:32:11.615Z,16.01
2022-08-22T04:34:43.242Z,16.03
2022-08-22T04:37:13.497Z,16.07
2022-08-22T04:39:45.690Z,16.06
2022-08-22T04:42:31.648Z,16.02
2022-08-22T04:45:02.115Z,16.02
2022-08-22T04:47:31.497Z,16.01
2022-08-22T04:50:01.463Z,15.98
2022-08-22T04:52:34.725Z,15.95
2022-08-22T04:55:08.065Z,15.93
2022-08-22T04:57:42.781Z,15.89
2022-08-22T05:00:11.361Z,15.88
2022-08-22T05:02:44.852Z,15.87
2022-08-22T05:05:17.487Z,15.88
2022-08-22T05:07:46.383Z,15.87
2022-08-22T05:10:17.327Z,15.86
2022-08-22T05:12:46.606Z,15.85
2022-08-22T05:15:22.923Z,15.87
2022-08-22T05:17:53.925Z,15.87
2022-08-22T05:20:22.922Z,15.89
2022-08-22T05:22:51.445Z,15.90
2022-08-22T05:25:21.818Z,15.96
2022-08-22T05:27:57.116Z,15.97
2022-08-22T05:30:27.614Z,15.98
2022-08-22T05:32:58.110Z,16.01
2022-08-22T05:35:29.252Z,16.09
2022-08-22T05:37:56.276Z,16.17
2022-08-22T05:40:24.800Z,16.24
2022-08-22T05:42:52.566Z,16.30
2022-08-22T05:45:20.447Z,16.32
2022-08-22T05:47:49.333Z,16.33
2022-08-22T05:50:18.437Z,16.35
2022-08-22T05:52:53.147Z,16.37
2022-08-22T05:55:23.733Z,16.43
2022-08-22T05:57:52.212Z,16.50
2022-08-22T06:00:21.705Z,16.52
2022-08-22T06:02:53.556Z,16.46
2022-08-22T06:05:25.754Z,16.46
2022-08-22T06:07:54.704Z,16.43
2022-08-22T06:10:24.730Z,16.44
2022-08-22T06:12:55.701Z,16.49
2022-08-22T06:15:29.162Z,16.54
2022-08-22T06:17:57.742Z,16.54
2022-08-22T06:20:28.669Z,16.53
2022-08-22T06:22:58.711Z,16.53
2022-08-22T06:25:26.783Z,16.57
2022-08-22T06:27:54.286Z,16.60
2022-08-22T06:30:21.558Z,16.64
2022-08-22T06:32:59.915Z,16.73
2022-08-22T06:35:51.415Z,16.73
2022-08-22T06:38:19.936Z,16.77
2022-08-22T06:40:47.089Z,16.82
2022-08-22T06:43:13.815Z,16.86
2022-08-22T06:45:41.623Z,16.84
2022-08-22T06:48:13.287Z,16.91
2022-08-22T06:50:43.118Z,17.01
2022-08-22T06:53:13.427Z,17.03
2022-08-22T06:55:42.959Z,17.12
2022-08-22T06:58:13.453Z,17.22
2022-08-22T07:00:42.072Z,17.34
2022-08-22T07:03:11.383Z,17.43
2022-08-22T07:05:39.276Z,17.42
2022-08-22T07:08:08.859Z,17.60
2022-08-22T07:10:35.517Z,17.65
2022-08-22T07:13:04.492Z,17.71
2022-08-22T07:15:35.492Z,17.74
2022-08-22T07:18:04.426Z,17.78
2022-08-22T07:20:31.957Z,18.01
2022-08-22T07:23:01.192Z,18.07
2022-08-22T07:25:29.927Z,18.21
2022-08-22T07:28:16.051Z,18.17
2022-08-22T07:30:50.185Z,18.26
2022-08-22T07:33:27.060Z,18.40
2022-08-22T07:35:57.618Z,18.29
2022-08-22T07:38:31.328Z,18.16
2022-08-22T07:41:03.795Z,18.25
2022-08-22T07:43:32.395Z,18.23
2022-08-22T07:46:00.661Z,18.00
2022-08-22T07:48:28.730Z,17.99
2022-08-22T07:51:01.074Z,18.00
2022-08-22T07:53:30.746Z,17.95
2022-08-22T07:55:59.251Z,17.88
2022-08-22T07:58:28.719Z,17.91
2022-08-22T08:00:56.298Z,17.84
2022-08-22T08:03:24.640Z,17.91
2022-08-22T08:05:51.599Z,17.95
2022-08-22T08:08:21.356Z,18.07
2022-08-22T08:10:48.928Z,18.23
2022-08-22T08:13:20.936Z,18.34
2022-08-22T08:15:50.593Z,18.44
2022-08-22T08:18:21.948Z,18.66
2022-08-22T08:20:50.696Z,18.75
2022-08-22T08:23:23.660Z,18.96
2022-08-22T08:25:57.694Z,19.05
2022-08-22T08:28:37.686Z,19.04
2022-08-22T08:31:08.307Z,19.37
2022-08-22T08:33:37.509Z,19.44
2022-08-22T08:36:07.742Z,19.74
2022-08-22T08:38:38.482Z,19.94
2022-08-22T08:41:20.877Z,20.61
2022-08-22T08:43:53.247Z,20.72
2022-08-22T08:46:55.277Z,20.84
2022-08-22T08:49:50.466Z,20.73
2022-08-22T08:52:30.891Z,20.72
2022-08-22T08:55:15.922Z,20.80
2022-08-22T08:57:54.529Z,21.18
2022-08-22T09:00:23.483Z,21.46
2022-08-22T09:03:07.118Z,22.33
2022-08-22T09:05:47.368Z,22.82
2022-08-22T09:08:27.705Z,23.44
2022-08-22T09:11:28.357Z,22.98
2022-08-22T09:14:02.487Z,23.60
2022-08-22T09:16:51.289Z,24.23
2022-08-22T09:19:28.300Z,24.88
2022-08-22T09:22:14.633Z,24.84
2022-08-22T09:24:50.041Z,25.07
2022-08-22T09:27:21.542Z,25.19
2022-08-22T09:29:59.790Z,25.14
2022-08-22T09:32:35.115Z,25.11
2022-08-22T09:35:06.023Z,24.43
2022-08-22T09:37:39.562Z,24.26
2022-08-22T09:40:17.324Z,24.50
2022-08-22T09:42:50.846Z,24.92
2022-08-22T09:45:27.402Z,24.65
2022-08-22T09:48:02.148Z,24.66
2022-08-22T09:50:42.461Z,24.24
2022-08-22T09:53:13.173Z,24.37
2022-08-22T09:55:45.164Z,24.68
2022-08-22T09:58:18.856Z,24.75
2022-08-22T10:00:55.252Z,24.35
2022-08-22T10:03:27.910Z,24.29
2022-08-22T10:05:59.376Z,24.29
2022-08-22T10:08:39.217Z,24.30
2022-08-22T10:11:14.025Z,24.95
2022-08-22T10:13:57.505Z,24.73
2022-08-22T10:16:39.515Z,25.12
2022-08-22T10:19:11.109Z,24.72
2022-08-22T10:21:41.572Z,24.81
2022-08-22T10:24:25.104Z,24.77
2022-08-22T10:26:55.855Z,24.60
2022-08-22T10:29:39.777Z,24.80
2022-08-22T10:32:14.578Z,25.13
2022-08-22T10:34:44.348Z,24.79
2022-08-22T10:37:17.346Z,24.68
2022-08-22T10:39:56.955Z,24.81
2022-08-22T10:42:27.867Z,25.29
2022-08-22T10:45:11.545Z,25.42
2022-08-22T10:47:41.932Z,25.30
2022-08-22T10:50:12.882Z,25.08
2022-08-22T10:52:44.495Z,25.10
2022-08-22T10:55:13.455Z,25.02
2022-08-22T10:57:52.123Z,25.21
2022-08-22T11:00:32.832Z,25.29
2022-08-22T11:03:10.943Z,24.86
2022-08-22T11:05:41.651Z,25.11
2022-08-22T11:08:16.978Z,25.49
2022-08-22T11:10:52.210Z,25.41
2022-08-22T11:13:27.168Z,24.89
2022-08-22T11:15:58.909Z,25.53
2022-08-22T11:18:32.065Z,25.31
2022-08-22T11:21:00.659Z,25.22
2022-08-22T11:23:38.796Z,25.14
2022-08-22T11:26:13.367Z,25.37
2022-08-22T11:28:57.822Z,25.88
2022-08-22T11:31:47.339Z,25.57
2022-08-22T11:34:25.583Z,25.67
2022-08-22T11:36:54.617Z,25.41
2022-08-22T11:39:24.846Z,25.69
2022-08-22T11:41:56.660Z,25.74
2022-08-22T11:44:27.662Z,26.08
2022-08-22T11:46:58.120Z,26.76
2022-08-22T11:49:39.481Z,27.13
2022-08-22T11:52:22.868Z,26.54
2022-08-22T11:55:07.255Z,26.88
2022-08-22T11:57:36.630Z,27.66
2022-08-22T12:00:15.738Z,27.70
2022-08-22T12:02:47.590Z,27.89
2022-08-22T12:05:20.247Z,27.88
2022-08-22T12:07:55.155Z,27.40
2022-08-22T12:10:25.674Z,27.35
2022-08-22T12:13:01.370Z,27.49
2022-08-22T12:15:33.486Z,27.67
2022-08-22T12:18:21.222Z,27.18
2022-08-22T12:21:03.512Z,27.30
2022-08-22T12:23:54.121Z,27.38
2022-08-22T12:26:26.277Z,27.13
2022-08-22T12:28:59.726Z,26.61
2022-08-22T12:31:33.267Z,26.54
2022-08-22T12:34:11.138Z,26.59
2022-08-22T12:36:51.662Z,26.91
2022-08-22T12:39:28.459Z,27.02
2022-08-22T12:42:13.757Z,27.19
2022-08-22T12:44:48.468Z,26.87
2022-08-22T12:47:25.264Z,26.50
2022-08-22T12:50:06.192Z,26.48
2022-08-22T12:52:44.323Z,26.01
2022-08-22T12:55:25.848Z,25.76
2022-08-22T12:58:06.996Z,25.94
2022-08-22T13:00:36.910Z,25.94
2022-08-22T13:03:06.321Z,25.87
2022-08-22T13:05:40.478Z,26.17
2022-08-22T13:08:13.297Z,26.10
2022-08-22T13:10:46.115Z,26.13
2022-08-22T13:13:15.068Z,26.36
2022-08-22T13:15:54.201Z,26.76
2022-08-22T13:18:31.702Z,26.73
2022-08-22T13:21:01.688Z,26.61
2022-08-22T13:23:32.593Z,26.52
2022-08-22T13:26:07.668Z,26.87
2022-08-22T13:28:40.250Z,27.07
2022-08-22T13:31:07.999Z,26.90
2022-08-22T13:33:39.024Z,26.97
2022-08-22T13:36:07.280Z,27.28
2022-08-22T13:38:46.510Z,27.31
2022-08-22T13:41:13.351Z,26.79
2022-08-22T13:43:54.991Z,26.57
2022-08-22T13:46:24.272Z,26.57
2022-08-22T13:49:00.813Z,26.47
2022-08-22T13:51:31.245Z,26.55
2022-08-22T13:54:02.850Z,26.65
2022-08-22T13:56:43.009Z,26.79
2022-08-22T13:59:29.276Z,26.98
2022-08-22T14:02:06.615Z,27.35
2022-08-22T14:04:37.299Z,27.82
2022-08-22T14:07:24.292Z,28.37
2022-08-22T14:09:56.077Z,28.37
2022-08-22T14:12:25.557Z,28.08
2022-08-22T14:14:56.156Z,28.26
2022-08-22T14:17:27.947Z,28.01
2022-08-22T14:19:58.784Z,27.61
2022-08-22T14:22:31.819Z,27.73
2022-08-22T14:25:03.979Z,27.64
2022-08-22T14:27:35.214Z,27.59
2022-08-22T14:30:04.982Z,27.44
2022-08-22T14:32:37.212Z,27.24
2022-08-22T14:35:17.047Z,27.04
2022-08-22T14:37:52.131Z,27.12
2022-08-22T14:40:22.456Z,27.18
2022-08-22T14:42:52.595Z,27.28
2022-08-22T14:45:21.875Z,27.15
2022-08-22T14:47:55.435Z,27.52
2022-08-22T14:50:40.590Z,27.79
2022-08-22T14:53:10.550Z,27.78
2022-08-22T14:55:39.504Z,27.38
2022-08-22T14:58:14.077Z,27.28
2022-08-22T15:00:42.383Z,27.44
2022-08-22T15:03:14.813Z,27.38
2022-08-22T15:05:45.509Z,27.17
2022-08-22T15:08:19.824Z,26.77
2022-08-22T15:11:04.312Z,26.58
2022-08-22T15:13:31.431Z,26.52
2022-08-22T15:16:03.507Z,26.47
2022-08-22T15:18:34.006Z,26.50
2022-08-22T15:21:01.705Z,26.53
2022-08-22T15:23:28.349Z,26.62
2022-08-22T15:25:59.190Z,26.70
2022-08-22T15:28:26.131Z,26.89
2022-08-22T15:31:03.828Z,27.02
2022-08-22T15:33:32.391Z,26.95
2022-08-22T15:36:08.547Z,26.74
2022-08-22T15:38:38.075Z,26.65
2022-08-22T15:41:31.446Z,26.69
2022-08-22T15:44:07.493Z,26.64
2022-08-22T15:46:37.966Z,26.47
2022-08-22T15:49:06.694Z,26.55
2022-08-22T15:51:39.547Z,26.72
2022-08-22T15:54:24.211Z,26.70
2022-08-22T15:57:06.556Z,26.68
2022-08-22T15:59:53.634Z,26.64
2022-08-22T16:02:24.259Z,26.67
2022-08-22T16:04:57.159Z,26.83
2022-08-22T16:07:34.650Z,26.84
2022-08-22T16:10:03.671Z,26.85
2022-08-22T16:12:33.328Z,26.70
2022-08-22T16:15:05.135Z,26.91
2022-08-22T16:17:41.480Z,26.81
2022-08-22T16:20:26.736Z,26.45
2022-08-22T16:23:06.420Z,26.08
2022-08-22T16:25:52.839Z,25.78
2022-08-22T16:28:31.646Z,25.60
2022-08-22T16:31:17.691Z,25.61
2022-08-22T16:33:44.393Z,25.41
2022-08-22T16:36:19.774Z,25.47
2022-08-22T16:38:48.584Z,25.52
2022-08-22T16:41:27.339Z,25.41
2022-08-22T16:44:13.389Z,25.29
2022-08-22T16:46:42.752Z,24.87
2022-08-22T16:49:10.746Z,24.84
2022-08-22T16:51:57.945Z,24.98
2022-08-22T16:54:39.527Z,24.75
2022-08-22T16:57:11.109Z,24.62
2022-08-22T16:59:51.997Z,24.45
2022-08-22T17:02:25.617Z,24.33
2022-08-22T17:05:00.435Z,24.29
2022-08-22T17:07:33.525Z,24.25
2022-08-22T17:10:12.166Z,24.05
2022-08-22T17:12:51.761Z,23.84
2022-08-22T17:15:24.046Z,23.60
2022-08-22T17:17:57.874Z,23.58
2022-08-22T17:20:28.458Z,23.44
2022-08-22T17:23:00.373Z,23.34
2022-08-22T17:25:33.783Z,23.27
2022-08-22T17:28:11.888Z,23.23
2022-08-22T17:30:41.304Z,23.12
2022-08-22T17:33:15.273Z,23.03
2022-08-22T17:35:51.533Z,22.80
2022-08-22T17:38:24.775Z,22.74
2022-08-22T17:40:57.760Z,22.78
2022-08-22T17:43:39.979Z,22.65
2022-08-22T17:46:26.992Z,22.45
2022-08-22T17:48:59.378Z,22.46
2022-08-22T17:51:28.975Z,22.44
2022-08-22T17:53:58.880Z,22.54
2022-08-22T17:56:27.777Z,22.47
2022-08-22T17:59:00.885Z,22.47
2022-08-22T18:01:40.907Z,22.40
2022-08-22T18:04:12.400Z,22.37
2022-08-22T18:06:46.295Z,22.35
2022-08-22T18:09:20.377Z,22.34
2022-08-22T18:11:50.281Z,22.26
2022-08-22T18:14:24.737Z,22.13
2022-08-22T18:16:52.976Z,22.09
2022-08-22T18:19:36.499Z,21.94
2022-08-22T18:22:09.358Z,21.83
2022-08-22T18:24:40.109Z,21.81
2022-08-22T18:27:34.166Z,21.85
2022-08-22T18:30:04.702Z,21.82
2022-08-22T18:32:33.188Z,21.66
2022-08-22T18:35:03.745Z,21.56
2022-08-22T18:37:45.011Z,21.50
2022-08-22T18:40:22.371Z,21.39
2022-08-22T18:42:51.370Z,21.36
2022-08-22T18:45:19.467Z,21.28
2022-08-22T18:47:54.251Z,21.20
2022-08-22T18:50:29.353Z,21.06
2022-08-22T18:52:57.924Z,20.89
2022-08-22T18:55:33.589Z,20.77
2022-08-22T18:58:15.149Z,20.62
2022-08-22T19:01:02.756Z,20.57
2022-08-22T19:03:36.345Z,20.36
2022-08-22T19:06:26.713Z,20.38
2022-08-22T19:09:03.281Z,20.45
2022-08-22T19:11:39.804Z,20.41
2022-08-22T19:14:10.823Z,20.35
2022-08-22T19:16:49.521Z,20.30
2022-08-22T19:19:19.730Z,20.14
2022-08-22T19:22:19.401Z,19.98
2022-08-22T19:25:05.819Z,19.88
2022-08-22T19:27:36.327Z,19.72
2022-08-22T19:30:05.870Z,19.66
2022-08-22T19:32:51.053Z,19.64
2022-08-22T19:35:19.902Z,19.50
2022-08-22T19:37:54.026Z,19.40
2022-08-22T19:40:40.635Z,19.38
2022-08-22T19:43:23.263Z,19.31
2022-08-22T19:45:50.628Z,19.24
2022-08-22T19:48:22.931Z,19.22
2022-08-22T19:51:06.002Z,19.16
2022-08-22T19:53:36.677Z,19.11
2022-08-22T19:56:12.794Z,19.06
2022-08-22T19:58:50.460Z,19.03
2022-08-22T20:01:35.383Z,18.95
2022-08-22T20:04:04.892Z,18.94
2022-08-22T20:06:43.912Z,18.89
2022-08-22T20:09:20.780Z,18.83
2022-08-22T20:11:52.483Z,18.70
2022-08-22T20:14:30.472Z,18.61
2022-08-22T20:16:59.601Z,18.57
2022-08-22T20:19:36.489Z,18.49
2022-08-22T20:22:04.541Z,18.38
2022-08-22T20:24:39.207Z,18.32
2022-08-22T20:27:14.458Z,18.31
2022-08-22T20:29:45.604Z,18.19
2022-08-22T20:32:13.758Z,18.11
2022-08-22T20:34:40.906Z,18.03
2022-08-22T20:37:29.280Z,17.99
2022-08-22T20:39:59.113Z,17.93
2022-08-22T20:42:26.770Z,17.90
2022-08-22T20:44:56.065Z,17.90
2022-08-22T20:47:24.020Z,17.93
2022-08-22T20:49:52.600Z,17.95
2022-08-22T20:52:23.879Z,17.97
2022-08-22T20:55:01.750Z,18.04
2022-08-22T20:57:29.094Z,18.06
2022-08-22T21:00:03.602Z,18.09
2022-08-22T21:02:34.987Z,18.11
2022-08-22T21:05:03.675Z,18.10
2022-08-22T21:07:31.402Z,18.14
2022-08-22T21:10:23.082Z,18.19
2022-08-22T21:13:03.746Z,18.25
2022-08-22T21:15:32.722Z,18.25
2022-08-22T21:17:59.492Z,18.14
2022-08-22T21:20:30.543Z,18.17
2022-08-22T21:23:00.326Z,18.19
2022-08-22T21:25:26.988Z,18.15
2022-08-22T21:27:55.089Z,18.17
2022-08-22T21:30:22.839Z,18.15
2022-08-22T21:32:55.684Z,18.14
2022-08-22T21:35:27.004Z,18.11
2022-08-22T21:37:53.707Z,18.00
2022-08-22T21:40:22.726Z,17.98
2022-08-22T21:42:59.179Z,18.04
2022-08-22T21:45:27.337Z,18.04
2022-08-22T21:47:55.696Z,18.11
2022-08-22T21:50:27.486Z,18.11
2022-08-22T21:53:02.309Z,18.08
2022-08-22T21:55:29.884Z,18.01
2022-08-22T21:58:12.625Z,17.96
2022-08-22T22:00:49.887Z,17.96
2022-08-22T22:03:19.478Z,17.95
2022-08-22T22:05:46.178Z,17.95
2022-08-22T22:08:12.968Z,17.99
2022-08-22T22:10:40.749Z,18.03
2022-08-22T22:13:07.727Z,18.04
2022-08-22T22:15:39.905Z,18.05
2022-08-22T22:18:06.863Z,18.02
2022-08-22T22:20:35.058Z,18.01
2022-08-22T22:23:01.665Z,17.93
2022-08-22T22:25:41.259Z,17.90
2022-08-22T22:28:11.314Z,17.89
2022-08-22T22:30:38.045Z,17.89
2022-08-22T22:33:04.820Z,17.83
2022-08-22T22:35:31.573Z,17.77
2022-08-22T22:37:59.707Z,17.75
2022-08-22T22:40:26.466Z,17.68
2022-08-22T22:42:53.067Z,17.65
2022-08-22T22:45:19.613Z,17.61
2022-08-22T22:47:46.205Z,17.58
2022-08-22T22:50:12.737Z,17.54
2022-08-22T22:52:40.780Z,17.57
2022-08-22T22:55:10.867Z,17.58
2022-08-22T22:57:41.466Z,17.51
2022-08-22T23:00:11.149Z,17.49
2022-08-22T23:02:37.834Z,17.46
2022-08-22T23:05:04.777Z,17.48
2022-08-22T23:07:33.929Z,17.54
2022-08-22T23:10:01.441Z,17.58
2022-08-22T23:12:30.222Z,17.59
2022-08-22T23:14:56.890Z,17.53
2022-08-22T23:17:23.450Z,17.47
2022-08-22T23:19:50.379Z,17.51
2022-08-22T23:22:17.059Z,17.59
2022-08-22T23:24:43.675Z,17.61
2022-08-22T23:27:10.954Z,17.64
2022-08-22T23:29:41.857Z,17.64
2022-08-22T23:32:09.476Z,17.62
2022-08-22T23:34:38.021Z,17.61
2022-08-22T23:37:06.453Z,17.55
2022-08-22T23:39:34.486Z,17.44
2022-08-22T23:42:01.456Z,17.35
2022-08-22T23:44:28.940Z,17.24
2022-08-22T23:46:57.219Z,17.11
2022-08-22T23:49:23.779Z,17.03
2022-08-22T23:51:50.473Z,16.95
2022-08-22T23:54:17.507Z,16.94
2022-08-22T23:56:45.241Z,16.93
2022-08-22T23:59:13.774Z,16.88
